sensor_id;sensor_type;location;lat;lon;timestamp;P1;durP1;ratioP1;P2;durP2;ratioP2
24102;SDS011;12278;53.058;9.028;2022-09-27T00:01:01;6.45;;;5.85;;
24102;SDS011;12278;53.058;9.028;2022-09-27T00:05:08;6.60;;;6.00;;
24102;SDS011;12278;53.058;9.028;2022-09-27T00:09:09;6.35;;;5.75;;
24102;SDS011;12278;53.058;9.028;2022-09-27T00:13:09;7.88;;;5.95;;
24102;SDS011;12278;53.058;9.028;2022-09-27T00:17:10;7.32;;;6.63;;
24102;SDS011;12278;53.058;9.028;2022-09-27T00:21:11;7.15;;;6.45;;
24102;SDS011;12278;53.058;9.028;2022-09-27T00:25:12;6.50;;;5.90;;
24102;SDS011;12278;53.058;9.028;2022-09-27T00:29:16;6.97;;;6.28;;
24102;SDS011;12278;53.058;9.028;2022-09-27T00:33:17;6.57;;;6.00;;
24102;SDS011;12278;53.058;9.028;2022-09-27T00:37:18;7.65;;;6.43;;
24102;SDS011;12278;53.058;9.028;2022-09-27T00:41:25;7.57;;;6.18;;
24102;SDS011;12278;53.058;9.028;2022-09-27T00:45:31;6.05;;;5.55;;
24102;SDS011;12278;53.058;9.028;2022-09-27T00:49:36;9.82;;;6.63;;
24102;SDS011;12278;53.058;9.028;2022-09-27T00:53:48;8.30;;;7.18;;
24102;SDS011;12278;53.058;9.028;2022-09-27T00:57:52;6.75;;;6.15;;
24102;SDS011;12278;53.058;9.028;2022-09-27T01:01:55;8.35;;;7.13;;
24102;SDS011;12278;53.058;9.028;2022-09-27T01:05:55;8.10;;;7.40;;
24102;SDS011;12278;53.058;9.028;2022-09-27T01:09:58;8.18;;;6.93;;
24102;SDS011;12278;53.058;9.028;2022-09-27T01:18:32;10.70;;;8.13;;
24102;SDS011;12278;53.058;9.028;2022-09-27T01:31:27;10.45;;;9.20;;
24102;SDS011;12278;53.058;9.028;2022-09-27T01:35:58;12.20;;;10.02;;
24102;SDS011;12278;53.058;9.028;2022-09-27T01:40:16;11.63;;;10.18;;
24102;SDS011;12278;53.058;9.028;2022-09-27T01:44:28;16.30;;;13.25;;
24102;SDS011;12278;53.058;9.028;2022-09-27T01:48:43;16.77;;;13.15;;
24102;SDS011;12278;53.058;9.028;2022-09-27T01:52:48;19.25;;;12.05;;
24102;SDS011;12278;53.058;9.028;2022-09-27T01:56:54;16.85;;;12.65;;
24102;SDS011;12278;53.058;9.028;2022-09-27T02:00:57;17.25;;;13.20;;
24102;SDS011;12278;53.058;9.028;2022-09-27T02:05:00;17.50;;;12.75;;
24102;SDS011;12278;53.058;9.028;2022-09-27T02:09:15;16.90;;;12.77;;
24102;SDS011;12278;53.058;9.028;2022-09-27T02:13:20;16.30;;;13.60;;
24102;SDS011;12278;53.058;9.028;2022-09-27T02:17:33;16.65;;;13.70;;
24102;SDS011;12278;53.058;9.028;2022-09-27T02:21:49;19.15;;;12.63;;
24102;SDS011;12278;53.058;9.028;2022-09-27T02:26:05;19.50;;;11.90;;
24102;SDS011;12278;53.058;9.028;2022-09-27T02:30:30;18.13;;;11.70;;
24102;SDS011;12278;53.058;9.028;2022-09-27T02:34:31;19.25;;;12.80;;
24102;SDS011;12278;53.058;9.028;2022-09-27T02:38:37;19.65;;;10.55;;
24102;SDS011;12278;53.058;9.028;2022-09-27T02:42:38;14.13;;;11.27;;
24102;SDS011;12278;53.058;9.028;2022-09-27T02:46:47;19.05;;;12.30;;
24102;SDS011;12278;53.058;9.028;2022-09-27T02:55:22;20.88;;;11.68;;
24102;SDS011;12278;53.058;9.028;2022-09-27T03:03:42;15.30;;;11.90;;
24102;SDS011;12278;53.058;9.028;2022-09-27T03:07:50;16.42;;;10.23;;
24102;SDS011;12278;53.058;9.028;2022-09-27T03:11:51;16.23;;;10.13;;
24102;SDS011;12278;53.058;9.028;2022-09-27T03:15:52;15.23;;;10.20;;
24102;SDS011;12278;53.058;9.028;2022-09-27T03:19:52;13.43;;;9.55;;
24102;SDS011;12278;53.058;9.028;2022-09-27T03:23:53;12.63;;;9.27;;
24102;SDS011;12278;53.058;9.028;2022-09-27T03:27:54;10.45;;;8.63;;
24102;SDS011;12278;53.058;9.028;2022-09-27T03:31:54;15.75;;;10.15;;
24102;SDS011;12278;53.058;9.028;2022-09-27T03:35:55;16.13;;;9.27;;
24102;SDS011;12278;53.058;9.028;2022-09-27T03:39:56;9.63;;;7.80;;
24102;SDS011;12278;53.058;9.028;2022-09-27T03:43:57;11.02;;;6.78;;
24102;SDS011;12278;53.058;9.028;2022-09-27T03:47:59;9.82;;;5.93;;
24102;SDS011;12278;53.058;9.028;2022-09-27T03:52:00;7.85;;;5.03;;
24102;SDS011;12278;53.058;9.028;2022-09-27T03:56:01;5.25;;;4.25;;
24102;SDS011;12278;53.058;9.028;2022-09-27T04:00:03;5.93;;;4.43;;
24102;SDS011;12278;53.058;9.028;2022-09-27T04:04:05;6.65;;;4.18;;
24102;SDS011;12278;53.058;9.028;2022-09-27T04:08:05;8.18;;;3.78;;
24102;SDS011;12278;53.058;9.028;2022-09-27T04:12:06;4.00;;;3.33;;
24102;SDS011;12278;53.058;9.028;2022-09-27T04:16:07;6.63;;;3.22;;
24102;SDS011;12278;53.058;9.028;2022-09-27T04:20:09;5.18;;;3.10;;
24102;SDS011;12278;53.058;9.028;2022-09-27T04:24:11;5.97;;;3.03;;
24102;SDS011;12278;53.058;9.028;2022-09-27T04:28:12;3.33;;;2.95;;
24102;SDS011;12278;53.058;9.028;2022-09-27T04:32:14;9.10;;;4.70;;
24102;SDS011;12278;53.058;9.028;2022-09-27T04:36:16;6.00;;;3.40;;
24102;SDS011;12278;53.058;9.028;2022-09-27T04:40:28;5.93;;;3.40;;
24102;SDS011;12278;53.058;9.028;2022-09-27T04:44:29;7.47;;;3.75;;
24102;SDS011;12278;53.058;9.028;2022-09-27T04:48:29;4.65;;;3.95;;
24102;SDS011;12278;53.058;9.028;2022-09-27T04:52:30;8.25;;;4.25;;
24102;SDS011;12278;53.058;9.028;2022-09-27T04:56:31;8.00;;;5.30;;
24102;SDS011;12278;53.058;9.028;2022-09-27T05:00:32;6.97;;;4.75;;
24102;SDS011;12278;53.058;9.028;2022-09-27T05:04:32;10.35;;;5.15;;
24102;SDS011;12278;53.058;9.028;2022-09-27T05:08:33;9.15;;;5.35;;
24102;SDS011;12278;53.058;9.028;2022-09-27T05:12:34;9.13;;;5.55;;
24102;SDS011;12278;53.058;9.028;2022-09-27T05:16:36;7.95;;;4.97;;
24102;SDS011;12278;53.058;9.028;2022-09-27T05:20:37;5.88;;;4.38;;
24102;SDS011;12278;53.058;9.028;2022-09-27T05:24:39;5.38;;;4.40;;
24102;SDS011;12278;53.058;9.028;2022-09-27T05:28:39;6.57;;;4.40;;
24102;SDS011;12278;53.058;9.028;2022-09-27T05:32:43;6.93;;;5.63;;
24102;SDS011;12278;53.058;9.028;2022-09-27T05:36:46;7.25;;;5.05;;
24102;SDS011;12278;53.058;9.028;2022-09-27T05:40:47;6.80;;;4.68;;
24102;SDS011;12278;53.058;9.028;2022-09-27T05:44:49;6.55;;;4.50;;
24102;SDS011;12278;53.058;9.028;2022-09-27T05:48:52;6.78;;;4.57;;
24102;SDS011;12278;53.058;9.028;2022-09-27T05:52:53;10.05;;;4.97;;
24102;SDS011;12278;53.058;9.028;2022-09-27T05:56:54;5.60;;;3.95;;
24102;SDS011;12278;53.058;9.028;2022-09-27T06:00:59;6.13;;;3.75;;
24102;SDS011;12278;53.058;9.028;2022-09-27T06:04:59;6.88;;;4.18;;
24102;SDS011;12278;53.058;9.028;2022-09-27T06:09:02;6.00;;;4.35;;
24102;SDS011;12278;53.058;9.028;2022-09-27T06:13:04;5.65;;;3.97;;
24102;SDS011;12278;53.058;9.028;2022-09-27T06:17:05;6.60;;;4.50;;
24102;SDS011;12278;53.058;9.028;2022-09-27T06:21:06;4.85;;;3.78;;
24102;SDS011;12278;53.058;9.028;2022-09-27T06:25:07;6.03;;;3.70;;
24102;SDS011;12278;53.058;9.028;2022-09-27T06:29:08;4.93;;;4.00;;
24102;SDS011;12278;53.058;9.028;2022-09-27T06:33:10;6.57;;;4.03;;
24102;SDS011;12278;53.058;9.028;2022-09-27T06:37:12;5.38;;;4.03;;
24102;SDS011;12278;53.058;9.028;2022-09-27T06:41:14;5.75;;;4.38;;
24102;SDS011;12278;53.058;9.028;2022-09-27T06:45:15;5.38;;;4.10;;
24102;SDS011;12278;53.058;9.028;2022-09-27T06:49:16;4.47;;;3.90;;
24102;SDS011;12278;53.058;9.028;2022-09-27T06:53:16;9.27;;;4.70;;
24102;SDS011;12278;53.058;9.028;2022-09-27T06:57:17;5.70;;;4.47;;
24102;SDS011;12278;53.058;9.028;2022-09-27T07:01:38;5.05;;;4.10;;
24102;SDS011;12278;53.058;9.028;2022-09-27T07:05:40;6.57;;;5.20;;
24102;SDS011;12278;53.058;9.028;2022-09-27T07:09:41;6.32;;;3.92;;
24102;SDS011;12278;53.058;9.028;2022-09-27T07:13:42;5.13;;;4.32;;
24102;SDS011;12278;53.058;9.028;2022-09-27T07:17:43;5.95;;;4.65;;
24102;SDS011;12278;53.058;9.028;2022-09-27T07:21:43;5.20;;;4.07;;
24102;SDS011;12278;53.058;9.028;2022-09-27T07:25:44;5.25;;;4.72;;
24102;SDS011;12278;53.058;9.028;2022-09-27T07:29:46;4.38;;;3.30;;
24102;SDS011;12278;53.058;9.028;2022-09-27T07:33:47;3.58;;;3.17;;
24102;SDS011;12278;53.058;9.028;2022-09-27T07:37:48;5.70;;;2.92;;
24102;SDS011;12278;53.058;9.028;2022-09-27T07:41:48;3.58;;;2.65;;
24102;SDS011;12278;53.058;9.028;2022-09-27T07:45:49;3.88;;;2.40;;
24102;SDS011;12278;53.058;9.028;2022-09-27T07:49:50;3.63;;;2.17;;
24102;SDS011;12278;53.058;9.028;2022-09-27T07:53:55;2.85;;;2.15;;
24102;SDS011;12278;53.058;9.028;2022-09-27T07:58:05;5.82;;;2.40;;
24102;SDS011;12278;53.058;9.028;2022-09-27T08:02:10;2.83;;;2.08;;
24102;SDS011;12278;53.058;9.028;2022-09-27T08:06:14;3.88;;;2.20;;
24102;SDS011;12278;53.058;9.028;2022-09-27T08:10:15;3.97;;;2.03;;
24102;SDS011;12278;53.058;9.028;2022-09-27T08:14:16;3.45;;;2.03;;
24102;SDS011;12278;53.058;9.028;2022-09-27T08:18:17;3.33;;;2.25;;
24102;SDS011;12278;53.058;9.028;2022-09-27T08:22:20;2.53;;;1.52;;
24102;SDS011;12278;53.058;9.028;2022-09-27T08:26:22;3.72;;;1.77;;
24102;SDS011;12278;53.058;9.028;2022-09-27T08:30:23;3.70;;;2.10;;
24102;SDS011;12278;53.058;9.028;2022-09-27T08:34:23;5.60;;;2.30;;
24102;SDS011;12278;53.058;9.028;2022-09-27T08:38:24;4.25;;;2.15;;
24102;SDS011;12278;53.058;9.028;2022-09-27T08:46:39;1.83;;;1.30;;
24102;SDS011;12278;53.058;9.028;2022-09-27T08:50:50;5.32;;;1.60;;
24102;SDS011;12278;53.058;9.028;2022-09-27T08:54:51;2.03;;;1.60;;
24102;SDS011;12278;53.058;9.028;2022-09-27T08:58:54;1.80;;;1.30;;
24102;SDS011;12278;53.058;9.028;2022-09-27T09:03:03;2.40;;;1.52;;
24102;SDS011;12278;53.058;9.028;2022-09-27T09:07:11;2.45;;;1.30;;
24102;SDS011;12278;53.058;9.028;2022-09-27T09:11:35;5.53;;;3.60;;
24102;SDS011;12278;53.058;9.028;2022-09-27T09:20:15;2.47;;;1.50;;
24102;SDS011;12278;53.058;9.028;2022-09-27T09:33:13;0.65;;;0.65;;
24102;SDS011;12278;53.058;9.028;2022-09-27T09:37:28;1.25;;;0.93;;
24102;SDS011;12278;53.058;9.028;2022-09-27T09:42:01;2.70;;;1.45;;
24102;SDS011;12278;53.058;9.028;2022-09-27T09:46:11;1.08;;;0.80;;
24102;SDS011;12278;53.058;9.028;2022-09-27T09:50:27;2.50;;;1.23;;
24102;SDS011;12278;53.058;9.028;2022-09-27T09:54:50;2.55;;;0.77;;
24102;SDS011;12278;53.058;9.028;2022-09-27T10:03:09;1.13;;;0.85;;
24102;SDS011;12278;53.058;9.028;2022-09-27T10:07:10;3.53;;;1.00;;
24102;SDS011;12278;53.058;9.028;2022-09-27T10:11:34;1.10;;;0.85;;
24102;SDS011;12278;53.058;9.028;2022-09-27T10:15:38;2.67;;;1.30;;
24102;SDS011;12278;53.058;9.028;2022-09-27T10:19:39;6.50;;;2.35;;
24102;SDS011;12278;53.058;9.028;2022-09-27T10:24:01;4.93;;;1.95;;
24102;SDS011;12278;53.058;9.028;2022-09-27T10:32:32;2.50;;;1.83;;
24102;SDS011;12278;53.058;9.028;2022-09-27T10:36:35;3.00;;;1.60;;
24102;SDS011;12278;53.058;9.028;2022-09-27T10:40:37;3.90;;;1.80;;
24102;SDS011;12278;53.058;9.028;2022-09-27T10:44:38;1.60;;;1.50;;
24102;SDS011;12278;53.058;9.028;2022-09-27T10:48:39;1.98;;;1.40;;
24102;SDS011;12278;53.058;9.028;2022-09-27T10:52:43;3.15;;;1.42;;
24102;SDS011;12278;53.058;9.028;2022-09-27T10:56:52;2.25;;;1.30;;
24102;SDS011;12278;53.058;9.028;2022-09-27T11:13:22;2.67;;;1.30;;
24102;SDS011;12278;53.058;9.028;2022-09-27T11:17:26;3.13;;;1.75;;
24102;SDS011;12278;53.058;9.028;2022-09-27T11:21:54;1.70;;;1.30;;
24102;SDS011;12278;53.058;9.028;2022-09-27T11:30:24;9.90;;;1.98;;
24102;SDS011;12278;53.058;9.028;2022-09-27T11:34:41;2.38;;;1.88;;
24102;SDS011;12278;53.058;9.028;2022-09-27T11:51:28;3.75;;;3.22;;
24102;SDS011;12278;53.058;9.028;2022-09-27T12:12:58;8.35;;;4.45;;
24102;SDS011;12278;53.058;9.028;2022-09-27T12:16:59;7.38;;;3.70;;
24102;SDS011;12278;53.058;9.028;2022-09-27T12:21:05;4.93;;;4.10;;
24102;SDS011;12278;53.058;9.028;2022-09-27T12:25:11;4.65;;;3.83;;
24102;SDS011;12278;53.058;9.028;2022-09-27T12:29:18;5.78;;;4.07;;
24102;SDS011;12278;53.058;9.028;2022-09-27T12:46:33;6.15;;;3.50;;
24102;SDS011;12278;53.058;9.028;2022-09-27T12:51:00;7.40;;;3.33;;
24102;SDS011;12278;53.058;9.028;2022-09-27T12:59:18;3.78;;;3.22;;
24102;SDS011;12278;53.058;9.028;2022-09-27T13:07:53;3.17;;;2.88;;
24102;SDS011;12278;53.058;9.028;2022-09-27T13:12:20;4.60;;;2.58;;
24102;SDS011;12278;53.058;9.028;2022-09-27T13:16:23;3.40;;;2.33;;
24102;SDS011;12278;53.058;9.028;2022-09-27T13:20:38;4.28;;;2.33;;
24102;SDS011;12278;53.058;9.028;2022-09-27T13:46:00;6.88;;;2.55;;
24102;SDS011;12278;53.058;9.028;2022-09-27T13:50:19;2.88;;;1.92;;
24102;SDS011;12278;53.058;9.028;2022-09-27T14:02:38;4.50;;;2.88;;
24102;SDS011;12278;53.058;9.028;2022-09-27T14:06:46;7.00;;;2.72;;
24102;SDS011;12278;53.058;9.028;2022-09-27T14:10:57;4.68;;;2.10;;
24102;SDS011;12278;53.058;9.028;2022-09-27T14:15:00;4.68;;;2.08;;
24102;SDS011;12278;53.058;9.028;2022-09-27T14:19:03;1.65;;;1.55;;
24102;SDS011;12278;53.058;9.028;2022-09-27T14:23:15;2.38;;;1.08;;
24102;SDS011;12278;53.058;9.028;2022-09-27T14:27:20;1.05;;;0.95;;
24102;SDS011;12278;53.058;9.028;2022-09-27T14:31:23;1.30;;;1.13;;
24102;SDS011;12278;53.058;9.028;2022-09-27T14:35:24;1.67;;;1.02;;
24102;SDS011;12278;53.058;9.028;2022-09-27T14:43:56;1.40;;;1.02;;
24102;SDS011;12278;53.058;9.028;2022-09-27T14:47:58;2.50;;;1.77;;
24102;SDS011;12278;53.058;9.028;2022-09-27T14:51:59;6.38;;;4.15;;
24102;SDS011;12278;53.058;9.028;2022-09-27T14:56:01;5.70;;;3.95;;
24102;SDS011;12278;53.058;9.028;2022-09-27T15:28:45;16.90;;;9.00;;
24102;SDS011;12278;53.058;9.028;2022-09-27T16:13:34;1.35;;;0.95;;
24102;SDS011;12278;53.058;9.028;2022-09-27T16:17:35;2.28;;;1.30;;
24102;SDS011;12278;53.058;9.028;2022-09-27T16:21:37;1.35;;;1.25;;
24102;SDS011;12278;53.058;9.028;2022-09-27T16:25:38;1.90;;;1.80;;
24102;SDS011;12278;53.058;9.028;2022-09-27T16:29:39;1.85;;;1.48;;
24102;SDS011;12278;53.058;9.028;2022-09-27T16:33:42;3.55;;;1.77;;
24102;SDS011;12278;53.058;9.028;2022-09-27T16:37:43;2.95;;;2.08;;
24102;SDS011;12278;53.058;9.028;2022-09-27T16:41:43;2.97;;;2.20;;
24102;SDS011;12278;53.058;9.028;2022-09-27T16:45:44;3.25;;;2.53;;
24102;SDS011;12278;53.058;9.028;2022-09-27T16:58:06;2.08;;;1.98;;
24102;SDS011;12278;53.058;9.028;2022-09-27T17:06:11;1.70;;;1.55;;
24102;SDS011;12278;53.058;9.028;2022-09-27T17:10:12;2.10;;;1.85;;
24102;SDS011;12278;53.058;9.028;2022-09-27T17:14:13;1.48;;;1.30;;
24102;SDS011;12278;53.058;9.028;2022-09-27T17:18:15;1.75;;;1.50;;
24102;SDS011;12278;53.058;9.028;2022-09-27T17:22:16;1.10;;;0.68;;
24102;SDS011;12278;53.058;9.028;2022-09-27T17:30:21;3.15;;;2.17;;
24102;SDS011;12278;53.058;9.028;2022-09-27T17:34:23;2.47;;;1.88;;
24102;SDS011;12278;53.058;9.028;2022-09-27T17:38:24;3.45;;;1.40;;
24102;SDS011;12278;53.058;9.028;2022-09-27T17:42:25;1.08;;;0.98;;
24102;SDS011;12278;53.058;9.028;2022-09-27T17:46:27;1.35;;;1.17;;
24102;SDS011;12278;53.058;9.028;2022-09-27T17:50:31;3.40;;;1.63;;
24102;SDS011;12278;53.058;9.028;2022-09-27T17:54:33;3.53;;;2.72;;
24102;SDS011;12278;53.058;9.028;2022-09-27T17:58:34;3.38;;;2.47;;
24102;SDS011;12278;53.058;9.028;2022-09-27T18:02:36;2.45;;;2.25;;
24102;SDS011;12278;53.058;9.028;2022-09-27T18:10:39;2.40;;;2.20;;
24102;SDS011;12278;53.058;9.028;2022-09-27T18:18:41;11.70;;;5.70;;
24102;SDS011;12278;53.058;9.028;2022-09-27T18:22:43;3.03;;;2.67;;
24102;SDS011;12278;53.058;9.028;2022-09-27T18:26:44;4.60;;;3.20;;
24102;SDS011;12278;53.058;9.028;2022-09-27T18:30:48;26.02;;;13.15;;
24102;SDS011;12278;53.058;9.028;2022-09-27T18:34:48;3.75;;;2.72;;
24102;SDS011;12278;53.058;9.028;2022-09-27T18:38:53;9.10;;;4.70;;
24102;SDS011;12278;53.058;9.028;2022-09-27T18:42:55;33.13;;;13.55;;
24102;SDS011;12278;53.058;9.028;2022-09-27T18:46:56;3.20;;;2.83;;
24102;SDS011;12278;53.058;9.028;2022-09-27T18:51:04;4.18;;;2.70;;
24102;SDS011;12278;53.058;9.028;2022-09-27T18:55:08;1.70;;;1.60;;
24102;SDS011;12278;53.058;9.028;2022-09-27T18:59:09;2.88;;;1.67;;
24102;SDS011;12278;53.058;9.028;2022-09-27T19:03:11;2.17;;;1.92;;
24102;SDS011;12278;53.058;9.028;2022-09-27T19:07:16;3.13;;;2.47;;
24102;SDS011;12278;53.058;9.028;2022-09-27T19:11:17;1.65;;;1.55;;
24102;SDS011;12278;53.058;9.028;2022-09-27T19:15:18;1.35;;;1.25;;
24102;SDS011;12278;53.058;9.028;2022-09-27T19:19:19;1.27;;;1.20;;
24102;SDS011;12278;53.058;9.028;2022-09-27T19:23:19;3.78;;;1.20;;
24102;SDS011;12278;53.058;9.028;2022-09-27T19:27:22;1.23;;;1.00;;
24102;SDS011;12278;53.058;9.028;2022-09-27T19:31:24;1.52;;;1.40;;
24102;SDS011;12278;53.058;9.028;2022-09-27T19:35:25;1.77;;;1.67;;
24102;SDS011;12278;53.058;9.028;2022-09-27T19:39:26;2.42;;;1.92;;
24102;SDS011;12278;53.058;9.028;2022-09-27T19:43:27;3.80;;;2.25;;
24102;SDS011;12278;53.058;9.028;2022-09-27T19:47:29;2.97;;;1.90;;
24102;SDS011;12278;53.058;9.028;2022-09-27T19:51:30;2.22;;;2.00;;
24102;SDS011;12278;53.058;9.028;2022-09-27T19:55:31;2.67;;;2.10;;
24102;SDS011;12278;53.058;9.028;2022-09-27T19:59:32;2.55;;;1.60;;
24102;SDS011;12278;53.058;9.028;2022-09-27T20:03:35;3.60;;;2.13;;
24102;SDS011;12278;53.058;9.028;2022-09-27T20:07:37;1.20;;;1.20;;
24102;SDS011;12278;53.058;9.028;2022-09-27T20:11:38;4.13;;;1.85;;
24102;SDS011;12278;53.058;9.028;2022-09-27T20:15:38;3.08;;;2.03;;
24102;SDS011;12278;53.058;9.028;2022-09-27T20:19:39;2.47;;;2.05;;
24102;SDS011;12278;53.058;9.028;2022-09-27T20:23:40;3.05;;;1.83;;
24102;SDS011;12278;53.058;9.028;2022-09-27T20:27:41;2.17;;;2.00;;
24102;SDS011;12278;53.058;9.028;2022-09-27T20:31:42;3.00;;;2.72;;
24102;SDS011;12278;53.058;9.028;2022-09-27T20:35:52;2.42;;;2.20;;
24102;SDS011;12278;53.058;9.028;2022-09-27T20:39:53;1.52;;;1.23;;
24102;SDS011;12278;53.058;9.028;2022-09-27T20:43:54;2.35;;;2.08;;
24102;SDS011;12278;53.058;9.028;2022-09-27T20:47:56;4.03;;;1.95;;
24102;SDS011;12278;53.058;9.028;2022-09-27T20:51:57;2.05;;;1.73;;
24102;SDS011;12278;53.058;9.028;2022-09-27T20:55:58;1.70;;;1.60;;
24102;SDS011;12278;53.058;9.028;2022-09-27T21:00:01;2.55;;;2.17;;
24102;SDS011;12278;53.058;9.028;2022-09-27T21:04:03;5.13;;;2.30;;
24102;SDS011;12278;53.058;9.028;2022-09-27T21:08:04;3.63;;;2.97;;
24102;SDS011;12278;53.058;9.028;2022-09-27T21:12:05;2.65;;;2.03;;
24102;SDS011;12278;53.058;9.028;2022-09-27T21:16:06;1.97;;;1.83;;
24102;SDS011;12278;53.058;9.028;2022-09-27T21:20:09;2.10;;;1.90;;
24102;SDS011;12278;53.058;9.028;2022-09-27T21:24:10;2.47;;;2.28;;
24102;SDS011;12278;53.058;9.028;2022-09-27T21:28:10;5.10;;;2.30;;
24102;SDS011;12278;53.058;9.028;2022-09-27T21:32:11;2.97;;;2.15;;
24102;SDS011;12278;53.058;9.028;2022-09-27T21:36:12;2.65;;;2.17;;
24102;SDS011;12278;53.058;9.028;2022-09-27T21:40:12;3.33;;;2.45;;
24102;SDS011;12278;53.058;9.028;2022-09-27T21:44:13;2.22;;;2.00;;
24102;SDS011;12278;53.058;9.028;2022-09-27T21:48:14;2.55;;;2.35;;
24102;SDS011;12278;53.058;9.028;2022-09-27T21:52:15;2.30;;;2.10;;
24102;SDS011;12278;53.058;9.028;2022-09-27T21:56:15;2.85;;;1.98;;
24102;SDS011;12278;53.058;9.028;2022-09-27T22:00:16;2.70;;;2.50;;
24102;SDS011;12278;53.058;9.028;2022-09-27T22:04:17;2.58;;;2.38;;
24102;SDS011;12278;53.058;9.028;2022-09-27T22:08:18;2.35;;;2.13;;
24102;SDS011;12278;53.058;9.028;2022-09-27T22:12:19;4.10;;;2.65;;
24102;SDS011;12278;53.058;9.028;2022-09-27T22:16:20;2.92;;;2.22;;
24102;SDS011;12278;53.058;9.028;2022-09-27T22:20:22;2.88;;;2.67;;
24102;SDS011;12278;53.058;9.028;2022-09-27T22:24:22;2.90;;;2.67;;
24102;SDS011;12278;53.058;9.028;2022-09-27T22:28:23;3.10;;;2.80;;
24102;SDS011;12278;53.058;9.028;2022-09-27T22:32:24;3.95;;;2.80;;
24102;SDS011;12278;53.058;9.028;2022-09-27T22:36:25;3.33;;;2.88;;
24102;SDS011;12278;53.058;9.028;2022-09-27T22:40:29;3.08;;;2.70;;
24102;SDS011;12278;53.058;9.028;2022-09-27T22:44:30;3.20;;;2.90;;
24102;SDS011;12278;53.058;9.028;2022-09-27T22:48:32;3.55;;;3.17;;
24102;SDS011;12278;53.058;9.028;2022-09-27T22:52:33;4.40;;;3.03;;
24102;SDS011;12278;53.058;9.028;2022-09-27T22:56:33;4.28;;;3.40;;
24102;SDS011;12278;53.058;9.028;2022-09-27T23:00:36;4.17;;;3.07;;
24102;SDS011;12278;53.058;9.028;2022-09-27T23:04:37;4.22;;;2.67;;
24102;SDS011;12278;53.058;9.028;2022-09-27T23:08:38;3.85;;;3.45;;
24102;SDS011;12278;53.058;9.028;2022-09-27T23:12:38;3.97;;;3.58;;
24102;SDS011;12278;53.058;9.028;2022-09-27T23:16:39;3.85;;;3.45;;
24102;SDS011;12278;53.058;9.028;2022-09-27T23:20:40;4.50;;;4.10;;
24102;SDS011;12278;53.058;9.028;2022-09-27T23:24:41;6.10;;;3.78;;
24102;SDS011;12278;53.058;9.028;2022-09-27T23:28:42;6.78;;;4.20;;
24102;SDS011;12278;53.058;9.028;2022-09-27T23:32:43;8.15;;;5.63;;
24102;SDS011;12278;53.058;9.028;2022-09-27T23:36:44;5.20;;;4.60;;
24102;SDS011;12278;53.058;9.028;2022-09-27T23:40:45;6.30;;;3.55;;
24102;SDS011;12278;53.058;9.028;2022-09-27T23:44:47;4.72;;;3.70;;
24102;SDS011;12278;53.058;9.028;2022-09-27T23:48:47;4.43;;;4.03;;
24102;SDS011;12278;53.058;9.028;2022-09-27T23:52:48;5.38;;;3.70;;
24102;SDS011;12278;53.058;9.028;2022-09-27T23:56:49;4.10;;;3.70;;
